Time;durP1;ratioP1;P1;durP2;ratioP2;P2;SDS_P1;SDS_P2;PMS_P1;PMS_P2;Temp;Humidity;BMP_temperature;BMP_pressure;BME280_temperature;BME280_humidity;BME280_pressure;Samples;Min_cycle;Max_cycle;Signal;HPM_P1;HPM_P2
2024/05/03 00:01:26;;;;;;;153.47;50.27;;;20.40;93.20;;;;;;5446156;26;20275;-49
2024/05/03 00:03:56;;;;;;;153.87;50.60;;;20.30;91.60;;;;;;5445215;26;20700;-49
2024/05/03 00:06:26;;;;;;;154.67;51.27;;;20.40;93.60;;;;;;5443444;26;20333;-50
2024/05/03 00:08:56;;;;;;;154.57;51.13;;;20.30;93.50;;;;;;5415395;26;20234;-49
2024/05/03 00:11:29;;;;;;;154.13;50.63;;;20.40;94.50;;;;;;5448184;26;20346;-49
2024/05/03 00:13:59;;;;;;;153.70;50.77;;;20.30;93.00;;;;;;5448730;26;20238;-49
2024/05/03 00:16:29;;;;;;;153.50;50.57;;;20.30;93.50;;;;;;5448722;26;20246;-49
2024/05/03 00:18:59;;;;;;;153.87;50.80;;;20.30;93.30;;;;;;5448141;26;20264;-49
2024/05/03 00:21:29;;;;;;;152.97;50.03;;;20.40;92.90;;;;;;5448281;26;20238;-49
2024/05/03 00:23:59;;;;;;;153.77;50.57;;;20.30;93.00;;;;;;5448018;26;20807;-49
2024/05/03 00:26:32;;;;;;;154.17;50.90;;;20.40;93.40;;;;;;5448552;26;20246;-49
2024/05/03 00:29:02;;;;;;;154.23;50.87;;;20.30;92.70;;;;;;5415479;26;20249;-50
2024/05/03 00:31:32;;;;;;;153.77;50.47;;;20.30;93.80;;;;;;5448639;26;20246;-49
2024/05/03 00:34:02;;;;;;;153.47;50.40;;;20.30;93.00;;;;;;5447992;26;20230;-49
2024/05/03 00:36:32;;;;;;;153.47;50.13;;;20.30;94.60;;;;;;5448628;26;20242;-49
2024/05/03 00:39:02;;;;;;;153.97;50.77;;;20.40;94.40;;;;;;5448469;26;20241;-49
2024/05/03 00:41:35;;;;;;;153.93;50.70;;;20.40;92.70;;;;;;5448606;26;20241;-49
2024/05/03 00:44:05;;;;;;;153.43;50.63;;;20.10;93.50;;;;;;5447448;26;20246;-50
2024/05/03 00:46:36;;;;;;;154.40;51.03;;;20.20;93.70;;;;;;5411934;26;20247;-49
2024/05/03 00:49:06;;;;;;;153.17;50.37;;;20.20;93.70;;;;;;5412233;26;20287;-53
2024/05/03 00:51:36;;;;;;;153.53;50.40;;;20.20;93.50;;;;;;5412632;26;20239;-54
2024/05/03 00:54:07;;;;;;;153.57;50.23;;;20.30;93.70;;;;;;5422244;26;20342;-53
2024/05/03 00:56:41;;;;;;;154.20;50.90;;;20.40;93.50;;;;;;5446551;26;20805;-54
2024/05/03 00:59:12;;;;;;;154.30;50.87;;;20.40;93.70;;;;;;5422777;26;20238;-53
2024/05/03 01:01:42;;;;;;;153.93;50.83;;;20.40;93.60;;;;;;5412854;26;20328;-55
2024/05/03 01:04:12;;;;;;;152.90;50.20;;;20.60;94.20;;;;;;5380402;26;20650;-53
2024/05/03 01:06:43;;;;;;;153.97;51.03;;;20.30;93.10;;;;;;5376914;26;20256;-50
2024/05/03 01:09:13;;;;;;;152.97;50.33;;;20.10;93.90;;;;;;5375657;26;20244;-50
2024/05/03 01:11:45;;;;;;;153.60;50.60;;;20.20;93.10;;;;;;5376270;26;20299;-49
2024/05/03 01:14:15;;;;;;;154.10;50.97;;;20.30;93.70;;;;;;5376416;26;20228;-49
2024/05/03 01:16:45;;;;;;;153.43;50.47;;;20.30;93.30;;;;;;5377065;26;20679;-49
2024/05/03 01:19:15;;;;;;;153.37;50.40;;;20.30;93.20;;;;;;5376061;26;20336;-49
2024/05/03 01:21:53;;;;;;;153.73;50.90;;;20.20;93.60;;;;;;5412359;26;20239;-49
2024/05/03 01:24:26;;;;;;;153.53;50.40;;;20.20;93.90;;;;;;5411309;26;20235;-49
2024/05/03 01:26:56;;;;;;;154.10;50.90;;;20.20;92.80;;;;;;5409703;26;20257;-49
2024/05/03 01:29:26;;;;;;;153.70;50.70;;;20.30;93.70;;;;;;5411428;26;20239;-49
2024/05/03 01:31:56;;;;;;;153.67;50.60;;;20.30;92.70;;;;;;5411746;26;20294;-49
2024/05/03 01:34:26;;;;;;;153.60;50.50;;;20.30;93.80;;;;;;5411200;26;20328;-49
2024/05/03 01:36:56;;;;;;;153.77;50.83;;;20.40;92.80;;;;;;5410850;26;20878;-49
2024/05/03 01:39:29;;;;;;;154.00;50.87;;;20.30;92.90;;;;;;5410672;26;20322;-49
2024/05/03 01:41:59;;;;;;;153.57;50.63;;;20.30;93.10;;;;;;5411189;26;20247;-49
2024/05/03 01:44:29;;;;;;;154.17;50.80;;;20.30;93.10;;;;;;5411029;26;20701;-49
2024/05/03 01:46:59;;;;;;;153.53;50.77;;;20.30;93.00;;;;;;5411891;26;20251;-49
2024/05/03 01:49:30;;;;;;;153.20;50.40;;;20.10;92.30;;;;;;5411803;26;20327;-49
2024/05/03 01:52:00;;;;;;;153.83;50.90;;;20.10;93.70;;;;;;5411581;26;20251;-49
2024/05/03 01:54:33;;;;;;;153.87;50.80;;;20.10;92.80;;;;;;5411312;26;20235;-49
2024/05/03 01:57:03;;;;;;;153.57;50.53;;;20.20;94.10;;;;;;5411235;26;20320;-49
2024/05/03 01:59:33;;;;;;;153.83;50.83;;;20.10;94.50;;;;;;5441922;26;20361;-49
2024/05/03 02:02:03;;;;;;;153.07;50.30;;;20.10;93.90;;;;;;5447047;26;20334;-50
2024/05/03 02:04:32;;;;;;;154.17;50.87;;;20.10;94.50;;;;;;5448989;26;20242;-49
2024/05/03 02:07:03;;;;;;;153.63;50.63;;;20.10;95.40;;;;;;5447502;26;20312;-49
2024/05/03 02:09:35;;;;;;;153.77;50.67;;;20.10;95.30;;;;;;5447331;26;20238;-50
2024/05/03 02:12:06;;;;;;;154.03;50.77;;;20.10;95.10;;;;;;5464958;26;20360;-54
2024/05/03 02:14:36;;;;;;;153.83;50.73;;;20.00;94.40;;;;;;5483476;26;20378;-50
2024/05/03 02:17:06;;;;;;;153.90;50.73;;;20.10;96.10;;;;;;5483516;26;20419;-49
2024/05/03 02:19:36;;;;;;;152.73;49.90;;;20.00;95.60;;;;;;5475348;26;20526;-49
2024/05/03 02:22:06;;;;;;;153.80;50.53;;;19.90;95.90;;;;;;5447235;26;20590;-50
2024/05/03 02:24:39;;;;;;;153.27;50.57;;;20.00;94.90;;;;;;5446885;26;20636;-49
2024/05/03 02:27:09;;;;;;;153.80;50.73;;;19.90;95.30;;;;;;5447052;26;20574;-49
2024/05/03 02:29:39;;;;;;;153.07;50.43;;;19.90;96.20;;;;;;5446411;26;20278;-49
2024/05/03 02:32:09;;;;;;;152.90;50.47;;;20.10;95.10;;;;;;5445047;26;20353;-53
2024/05/03 02:34:39;;;;;;;153.43;50.37;;;20.00;94.80;;;;;;5446074;26;20300;-50
2024/05/03 02:37:09;;;;;;;153.47;50.50;;;20.00;94.90;;;;;;5446992;26;20770;-50
2024/05/03 02:39:42;;;;;;;152.90;50.10;;;20.10;95.30;;;;;;5447093;26;20230;-49
2024/05/03 02:42:12;;;;;;;153.80;50.53;;;20.00;96.30;;;;;;5446666;26;20246;-50
2024/05/03 02:44:42;;;;;;;153.53;50.47;;;19.90;95.80;;;;;;5414273;26;20261;-49
2024/05/03 02:47:12;;;;;;;152.73;49.93;;;19.80;95.90;;;;;;5445804;26;20754;-49
2024/05/03 02:49:42;;;;;;;153.83;50.70;;;20.00;96.10;;;;;;5446508;26;20562;-49
2024/05/03 02:52:12;;;;;;;153.40;50.50;;;20.00;95.80;;;;;;5441030;26;20359;-50
2024/05/03 02:54:45;;;;;;;153.17;50.50;;;19.90;95.80;;;;;;5429371;26;20247;-49
2024/05/03 02:57:15;;;;;;;153.40;50.37;;;19.80;96.10;;;;;;5446432;26;20242;-50
2024/05/03 02:59:45;;;;;;;153.43;50.33;;;20.00;95.20;;;;;;5412904;26;20345;-50
2024/05/03 03:02:16;;;;;;;152.80;50.37;;;19.80;95.40;;;;;;5446500;26;20246;-50
2024/05/03 03:04:46;;;;;;;152.10;49.77;;;19.80;96.30;;;;;;5446261;26;20238;-49
2024/05/03 03:07:16;;;;;;;152.77;50.17;;;19.90;95.90;;;;;;5446403;26;20276;-51
2024/05/03 03:09:49;;;;;;;153.17;50.27;;;19.80;95.60;;;;;;5445918;26;20318;-51
2024/05/03 03:12:19;;;;;;;152.27;49.37;;;19.60;95.40;;;;;;5446494;26;20530;-50
2024/05/03 03:14:49;;;;;;;153.20;50.27;;;19.60;97.00;;;;;;5446105;26;20237;-51
2024/05/03 03:17:19;;;;;;;152.77;50.00;;;19.50;97.20;;;;;;5446890;26;20234;-51
2024/05/03 03:19:50;;;;;;;153.30;50.30;;;19.60;97.50;;;;;;5445904;26;20613;-50
2024/05/03 03:22:20;;;;;;;152.63;49.80;;;19.60;97.30;;;;;;5446483;26;20718;-49
2024/05/03 03:24:53;;;;;;;153.10;50.50;;;19.60;98.10;;;;;;5444799;26;20269;-49
2024/05/03 03:27:23;;;;;;;153.07;50.17;;;19.60;97.50;;;;;;5414306;26;20254;-49
2024/05/03 03:29:53;;;;;;;153.43;50.60;;;19.50;97.60;;;;;;5444173;26;20727;-49
2024/05/03 03:32:23;;;;;;;152.83;50.00;;;19.50;98.10;;;;;;5446370;26;20839;-49
2024/05/03 03:34:53;;;;;;;153.37;50.33;;;19.50;98.70;;;;;;5445375;26;20844;-49
2024/05/03 03:37:23;;;;;;;153.27;50.40;;;19.40;98.10;;;;;;5446021;26;20246;-49
2024/05/03 03:39:56;;;;;;;152.70;50.03;;;19.30;98.10;;;;;;5445211;26;20279;-50
2024/05/03 03:42:26;;;;;;;152.87;50.03;;;19.40;98.40;;;;;;5444391;26;20571;-48
2024/05/03 03:44:57;;;;;;;152.97;49.70;;;19.50;98.50;;;;;;5437765;26;20257;-49
2024/05/03 03:47:28;;;;;;;152.73;49.97;;;19.50;98.60;;;;;;5437559;26;20250;-49
2024/05/03 03:49:58;;;;;;;153.13;49.93;;;19.50;99.10;;;;;;5435473;26;20350;-49
2024/05/03 03:52:30;;;;;;;153.63;50.40;;;19.20;98.90;;;;;;5443373;26;20257;-49
2024/05/03 03:55:03;;;;;;;153.07;50.03;;;19.30;99.90;;;;;;5442662;26;20250;-51
2024/05/03 03:57:33;;;;;;;152.00;49.70;;;19.30;99.60;;;;;;5442937;26;20300;-50
2024/05/03 04:00:03;;;;;;;152.43;49.80;;;19.40;99.30;;;;;;5413250;26;20727;-50
2024/05/03 04:02:41;;;;;;;153.00;49.83;;;19.30;99.40;;;;;;5409330;26;20771;-50
2024/05/03 04:05:11;;;;;;;153.30;50.23;;;19.40;99.90;;;;;;5409081;26;20231;-50
2024/05/03 04:07:41;;;;;;;153.13;50.20;;;19.40;99.90;;;;;;5409617;26;20348;-49
2024/05/03 04:10:13;;;;;;;152.83;49.90;;;19.40;99.90;;;;;;5409157;26;20334;-49
2024/05/03 04:12:44;;;;;;;153.43;50.17;;;19.40;99.90;;;;;;5408944;26;20596;-49
2024/05/03 04:15:14;;;;;;;151.63;49.23;;;19.30;99.90;;;;;;5408819;26;20269;-50
2024/05/03 04:17:44;;;;;;;153.00;50.07;;;19.50;99.90;;;;;;5408829;26;20246;-50
2024/05/03 04:20:14;;;;;;;153.17;50.37;;;19.30;99.90;;;;;;5408965;26;20364;-50
2024/05/03 04:22:44;;;;;;;153.03;50.20;;;19.40;99.90;;;;;;5437268;26;20246;-49
2024/05/03 04:25:18;;;;;;;152.50;49.70;;;19.40;99.90;;;;;;5408954;26;20231;-48
2024/05/03 04:27:48;;;;;;;152.87;49.83;;;19.30;99.90;;;;;;5408959;26;20243;-48
2024/05/03 04:30:18;;;;;;;152.50;49.73;;;19.20;99.90;;;;;;5409462;26;20239;-50
2024/05/03 04:32:48;;;;;;;152.97;50.20;;;19.30;99.90;;;;;;5377786;26;20243;-49
2024/05/03 04:35:18;;;;;;;152.83;50.03;;;19.20;99.90;;;;;;5408709;26;20243;-49
2024/05/03 04:37:48;;;;;;;152.27;49.83;;;19.40;99.90;;;;;;5408405;26;20278;-49
2024/05/03 04:40:21;;;;;;;152.63;49.77;;;19.30;99.90;;;;;;5409508;26;20247;-49
2024/05/03 04:42:51;;;;;;;153.13;49.97;;;19.20;99.90;;;;;;5408563;26;20239;-49
2024/05/03 04:45:21;;;;;;;152.10;49.87;;;19.30;99.90;;;;;;5408910;26;20294;-53
2024/05/03 04:47:51;;;;;;;152.00;49.77;;;19.20;99.90;;;;;;5408766;26;20317;-49
2024/05/03 04:50:21;;;;;;;152.73;49.97;;;19.20;99.90;;;;;;5411608;26;20708;-49
2024/05/03 04:52:51;;;;;;;152.37;49.63;;;19.10;99.90;;;;;;5409780;26;20239;-53
2024/05/03 04:55:24;;;;;;;152.63;49.90;;;19.10;99.90;;;;;;5433976;26;20242;-51
2024/05/03 04:57:54;;;;;;;152.47;49.80;;;19.20;99.90;;;;;;5412074;26;20583;-52
2024/05/03 05:00:24;;;;;;;152.67;49.80;;;19.10;99.90;;;;;;5412541;26;20291;-51
2024/05/03 05:02:54;;;;;;;152.53;49.73;;;19.10;99.90;;;;;;5412048;26;20280;-51
2024/05/03 05:05:24;;;;;;;153.47;49.90;;;19.10;99.90;;;;;;5412534;26;20227;-53
2024/05/03 05:07:55;;;;;;;152.90;49.77;;;19.10;99.90;;;;;;5418517;26;20227;-52
2024/05/03 05:10:27;;;;;;;152.30;49.50;;;19.10;99.90;;;;;;5418420;26;20370;-52
2024/05/03 05:13:02;;;;;;;152.63;49.73;;;19.10;99.90;;;;;;5418519;26;20231;-50
2024/05/03 05:15:32;;;;;;;152.87;49.80;;;19.10;99.90;;;;;;5418390;26;20235;-51
2024/05/03 05:18:02;;;;;;;152.93;49.77;;;19.00;99.90;;;;;;5419439;26;20719;-52
2024/05/03 05:20:39;;;;;;;153.17;49.93;;;19.00;99.90;;;;;;5419930;26;20751;-51
2024/05/03 05:23:07;;;;;;;151.10;49.00;;;19.10;99.90;;;;;;5422714;26;20279;-52
2024/05/03 05:25:40;;;;;;;152.37;49.77;;;19.20;99.90;;;;;;5409795;26;20292;-54
2024/05/03 05:28:10;;;;;;;152.20;49.37;;;19.20;99.90;;;;;;5418336;26;20239;-54
2024/05/03 05:30:40;;;;;;;152.37;49.60;;;19.20;99.90;;;;;;5413884;26;20307;-51
2024/05/03 05:33:10;;;;;;;151.33;49.27;;;19.10;99.90;;;;;;5419465;26;20249;-51
2024/05/03 05:35:40;;;;;;;152.07;49.43;;;19.10;99.90;;;;;;5415467;26;20348;-52
2024/05/03 05:38:10;;;;;;;153.30;50.07;;;19.00;99.90;;;;;;5415641;26;20239;-52
2024/05/03 05:40:43;;;;;;;152.20;49.70;;;19.10;99.90;;;;;;5417443;26;20239;-52
2024/05/03 05:43:13;;;;;;;152.73;49.67;;;19.00;99.90;;;;;;5417949;26;20231;-53
2024/05/03 05:45:43;;;;;;;151.77;49.30;;;19.00;99.90;;;;;;5418108;26;20235;-52
2024/05/03 05:48:13;;;;;;;152.77;49.67;;;19.00;99.90;;;;;;5417819;26;20227;-51
2024/05/03 05:50:43;;;;;;;152.20;49.63;;;18.90;99.90;;;;;;5416116;26;20231;-51
2024/05/03 05:53:13;;;;;;;152.73;49.87;;;18.90;99.90;;;;;;5407832;26;20258;-55
2024/05/03 05:55:46;;;;;;;152.03;49.33;;;19.00;99.90;;;;;;5413494;26;20744;-54
2024/05/03 05:58:16;;;;;;;152.10;49.47;;;18.80;99.90;;;;;;5421651;26;20297;-55
2024/05/03 06:00:46;;;;;;;152.83;49.83;;;18.70;99.90;;;;;;5448127;26;20288;-54
2024/05/03 06:03:16;;;;;;;152.60;49.77;;;18.60;99.90;;;;;;5449583;26;20270;-54
2024/05/03 06:05:47;;;;;;;152.77;49.77;;;18.70;99.90;;;;;;5450028;26;20250;-54
2024/05/03 06:08:17;;;;;;;153.03;49.77;;;18.70;99.90;;;;;;5444167;26;20258;-55
2024/05/03 06:10:50;;;;;;;152.57;49.67;;;18.50;99.90;;;;;;5441771;26;20250;-53
2024/05/03 06:13:20;;;;;;;153.00;49.93;;;18.50;99.90;;;;;;5444455;26;20250;-55
2024/05/03 06:15:50;;;;;;;152.67;49.63;;;18.70;99.90;;;;;;5449927;26;20307;-55
2024/05/03 06:18:21;;;;;;;151.57;49.03;;;18.70;99.90;;;;;;5450021;26;20596;-54
2024/05/03 06:20:48;;;;;;;151.83;49.20;;;18.70;99.90;;;;;;5443136;26;20323;-52
2024/05/03 06:23:19;;;;;;;152.43;49.47;;;18.70;99.90;;;;;;5449820;26;20862;-51
2024/05/03 06:25:51;;;;;;;152.27;49.37;;;18.60;99.90;;;;;;5442053;26;20258;-56
2024/05/03 06:28:21;;;;;;;151.97;49.37;;;18.70;99.90;;;;;;5446819;26;20298;-53
2024/05/03 06:30:51;;;;;;;152.37;49.60;;;18.70;99.90;;;;;;5450548;26;20317;-52
2024/05/03 06:33:21;;;;;;;151.83;49.23;;;18.60;99.90;;;;;;5449628;26;20262;-53
2024/05/03 06:35:51;;;;;;;152.10;49.47;;;18.70;99.90;;;;;;5450011;26;20296;-53
2024/05/03 06:38:21;;;;;;;151.83;49.10;;;18.50;99.90;;;;;;5448645;26;20250;-53
2024/05/03 06:40:54;;;;;;;151.77;49.10;;;18.40;99.90;;;;;;5449518;26;20261;-54
2024/05/03 06:43:24;;;;;;;153.10;49.80;;;18.40;99.90;;;;;;5450713;26;20250;-54
2024/05/03 06:45:54;;;;;;;152.10;49.53;;;18.40;99.90;;;;;;5442904;26;20297;-51
2024/05/03 06:48:27;;;;;;;151.60;49.13;;;18.30;99.90;;;;;;5445279;26;20250;-54
2024/05/03 06:50:58;;;;;;;152.03;49.20;;;18.10;99.90;;;;;;5445338;26;20250;-62
2024/05/03 06:53:29;;;;;;;152.00;49.37;;;18.10;99.90;;;;;;5442904;26;20302;-54
2024/05/03 06:56:02;;;;;;;151.87;49.20;;;17.90;99.90;;;;;;5438303;26;20372;-54
2024/05/03 06:58:32;;;;;;;152.20;49.27;;;18.00;99.90;;;;;;5449166;26;20254;-54
2024/05/03 07:01:02;;;;;;;151.90;49.20;;;17.90;99.90;;;;;;5439971;26;20266;-54
2024/05/03 07:03:32;;;;;;;151.60;49.17;;;18.00;99.90;;;;;;5448001;26;20277;-52
2024/05/03 07:06:02;;;;;;;151.43;48.97;;;18.10;99.90;;;;;;5448658;26;20298;-53
2024/05/03 07:08:32;;;;;;;151.70;49.00;;;17.90;99.90;;;;;;5449748;26;20262;-52
2024/05/03 07:11:05;;;;;;;152.17;49.10;;;18.10;99.90;;;;;;5449131;26;20700;-52
2024/05/03 07:13:36;;;;;;;150.67;48.50;;;18.10;99.90;;;;;;5449743;26;20246;-52
2024/05/03 07:16:07;;;;;;;151.47;48.97;;;18.10;99.90;;;;;;5448350;26;20300;-53
2024/05/03 07:18:37;;;;;;;150.93;48.87;;;18.20;99.90;;;;;;5449390;26;20246;-52
2024/05/03 07:21:09;;;;;;;151.60;49.03;;;18.20;99.90;;;;;;5447038;26;20289;-51
2024/05/03 07:23:41;;;;;;;153.00;49.87;;;18.10;99.90;;;;;;5449599;26;20262;-51
2024/05/03 07:26:14;;;;;;;151.60;49.10;;;18.00;99.90;;;;;;5448831;26;20362;-52
2024/05/03 07:28:44;;;;;;;151.57;48.80;;;18.10;99.90;;;;;;5449984;26;20258;-51
2024/05/03 07:31:14;;;;;;;151.83;48.93;;;18.10;99.90;;;;;;5449271;26;20357;-54
2024/05/03 07:33:44;;;;;;;152.10;49.07;;;18.00;99.90;;;;;;5439177;26;20714;-51
2024/05/03 07:36:14;;;;;;;151.40;48.97;;;18.00;99.90;;;;;;5448798;26;20302;-51
2024/05/03 07:38:44;;;;;;;151.07;48.70;;;17.90;99.90;;;;;;5448000;26;20750;-51
2024/05/03 07:41:17;;;;;;;151.53;48.97;;;18.00;99.90;;;;;;5449092;26;20241;-51
2024/05/03 07:43:47;;;;;;;151.23;48.83;;;17.90;99.90;;;;;;5449060;26;20345;-51
2024/05/03 07:46:20;;;;;;;151.67;49.07;;;17.90;99.90;;;;;;5443620;26;20353;-51
2024/05/03 07:48:50;;;;;;;152.00;49.23;;;17.90;99.90;;;;;;5448721;26;20301;-52
2024/05/03 07:51:20;;;;;;;151.17;48.73;;;17.90;99.90;;;;;;5417795;26;20354;-51
2024/05/03 07:53:51;;;;;;;151.70;48.93;;;17.90;99.90;;;;;;5448800;26;20257;-52
2024/05/03 07:56:24;;;;;;;152.27;49.37;;;17.90;99.90;;;;;;5448302;26;20299;-51
2024/05/03 07:58:54;;;;;;;151.27;48.70;;;18.00;99.90;;;;;;5448303;26;20354;-50
2024/05/03 08:01:27;;;;;;;151.27;48.80;;;18.00;99.90;;;;;;5448666;26;20731;-51
2024/05/03 08:03:57;;;;;;;151.30;48.90;;;18.00;99.90;;;;;;5447555;26;20249;-53
2024/05/03 08:06:30;;;;;;;150.73;48.77;;;18.00;99.90;;;;;;5448890;26;20250;-51
2024/05/03 08:09:00;;;;;;;150.47;48.43;;;18.00;99.90;;;;;;5429698;26;20270;-52
2024/05/03 08:11:33;;;;;;;151.47;48.97;;;18.00;99.90;;;;;;5439234;26;20258;-55
2024/05/03 08:14:03;;;;;;;151.57;49.00;;;17.90;99.90;;;;;;5446916;26;20800;-54
2024/05/03 08:16:33;;;;;;;151.23;48.97;;;17.80;99.90;;;;;;5448647;26;20734;-54
2024/05/03 08:19:03;;;;;;;151.83;49.17;;;17.80;99.90;;;;;;5438218;26;20257;-54
2024/05/03 08:21:47;;;;;;;151.87;49.37;;;18.90;99.90;;;;;;5447773;26;20269;-54
2024/05/03 08:24:17;;;;;;;151.33;49.23;;;19.50;99.90;;;;;;5415457;26;20360;-55
2024/05/03 08:26:50;;;;;;;151.43;49.40;;;19.20;99.10;;;;;;5448451;26;20245;-54
2024/05/03 08:29:20;;;;;;;152.67;49.93;;;18.50;99.90;;;;;;5451303;26;20296;-55
2024/05/03 08:31:50;;;;;;;150.93;48.90;;;18.20;99.90;;;;;;5420690;26;20680;-54
2024/05/03 08:34:19;;;;;;;151.40;49.13;;;18.10;99.90;;;;;;5451383;26;20257;-55
2024/05/03 08:36:49;;;;;;;151.20;48.97;;;18.10;99.90;;;;;;5451382;26;20254;-54
2024/05/03 08:39:19;;;;;;;151.63;49.30;;;18.20;99.90;;;;;;5451340;26;20345;-54
2024/05/03 08:42:05;;;;;;;151.80;49.37;;;18.00;99.90;;;;;;5451384;26;20978;-54
2024/05/03 08:44:37;;;;;;;150.93;48.83;;;17.90;99.90;;;;;;5446677;26;20247;-54
2024/05/03 08:47:10;;;;;;;151.57;49.13;;;17.90;99.90;;;;;;5452134;26;20253;-55
2024/05/03 08:49:47;;;;;;;151.07;49.00;;;17.90;99.90;;;;;;5449866;26;20292;-54
2024/05/03 08:52:19;;;;;;;150.80;48.77;;;17.80;99.90;;;;;;5447892;26;20667;-56
2024/05/03 08:54:51;;;;;;;151.23;48.97;;;17.70;99.90;;;;;;5451507;26;20253;-54
2024/05/03 08:57:25;;;;;;;150.97;48.63;;;17.70;99.90;;;;;;5451157;26;20262;-55
2024/05/03 08:59:55;;;;;;;150.63;48.50;;;17.80;99.90;;;;;;5416828;26;20610;-55
2024/05/03 09:02:26;;;;;;;150.97;48.87;;;17.80;99.90;;;;;;5411740;26;20310;-55
2024/05/03 09:04:56;;;;;;;150.50;48.60;;;18.00;99.90;;;;;;5411683;26;20251;-55
2024/05/03 09:07:30;;;;;;;151.77;49.20;;;17.80;99.90;;;;;;5416353;26;20255;-55
2024/05/03 09:10:04;;;;;;;150.43;48.50;;;17.70;99.90;;;;;;5415502;26;20311;-55
2024/05/03 09:12:45;;;;;;;150.83;48.73;;;17.80;99.90;;;;;;5416054;26;20298;-55
2024/05/03 09:15:15;;;;;;;150.93;48.97;;;17.90;99.90;;;;;;5413671;26;20743;-55
2024/05/03 09:17:45;;;;;;;151.17;48.97;;;18.00;99.90;;;;;;5416214;26;20735;-54
2024/05/03 09:20:17;;;;;;;151.83;49.30;;;18.00;99.90;;;;;;5415992;26;20251;-55
2024/05/03 09:22:47;;;;;;;150.97;48.87;;;18.00;99.90;;;;;;5416059;26;20310;-54
2024/05/03 09:25:18;;;;;;;151.50;49.27;;;18.10;99.90;;;;;;5414817;26;20267;-55
2024/05/03 09:27:58;;;;;;;150.87;48.70;;;18.20;99.90;;;;;;5416184;26;20255;-55
2024/05/03 09:30:29;;;;;;;151.00;48.90;;;18.10;99.90;;;;;;5415987;26;20251;-52
2024/05/03 09:32:59;;;;;;;151.47;48.90;;;18.20;99.90;;;;;;5416514;26;20390;-51
2024/05/03 09:35:29;;;;;;;151.40;49.10;;;18.10;99.90;;;;;;5415535;26;20251;-52
2024/05/03 09:37:59;;;;;;;151.77;49.20;;;18.10;99.90;;;;;;5415378;26;20293;-52
2024/05/03 09:40:29;;;;;;;152.03;49.50;;;17.80;99.90;;;;;;5418574;26;20247;-52
2024/05/03 09:43:02;;;;;;;152.20;49.50;;;17.60;99.90;;;;;;5413253;26;20747;-52
2024/05/03 09:45:32;;;;;;;151.27;48.97;;;17.60;99.90;;;;;;5414524;26;20255;-52
2024/05/03 09:48:09;;;;;;;151.03;48.70;;;17.50;99.90;;;;;;5414854;26;20344;-53
2024/05/03 09:50:46;;;;;;;151.17;48.73;;;17.70;99.90;;;;;;5415866;26;20310;-55
2024/05/03 09:53:17;;;;;;;151.43;49.03;;;17.50;99.90;;;;;;5414977;26;20328;-53
2024/05/03 09:55:50;;;;;;;150.50;48.63;;;17.50;99.90;;;;;;5415087;26;20354;-52
2024/05/03 09:58:26;;;;;;;151.57;49.03;;;17.60;99.90;;;;;;5418259;26;20315;-56
2024/05/03 10:01:00;;;;;;;150.90;48.57;;;17.50;99.90;;;;;;5425436;26;20258;-51
2024/05/03 10:03:32;;;;;;;151.23;49.07;;;17.70;99.90;;;;;;5413837;26;20255;-54
2024/05/03 10:06:03;;;;;;;150.80;48.70;;;17.60;99.90;;;;;;5414572;26;20313;-53
2024/05/03 10:08:34;;;;;;;150.50;48.60;;;17.70;99.90;;;;;;5415511;26;20263;-54
2024/05/03 10:11:05;;;;;;;151.17;48.80;;;17.90;99.30;;;;;;5414104;26;20655;-52
2024/05/03 10:13:38;;;;;;;151.10;48.67;;;17.70;99.50;;;;;;5414556;26;20423;-53
2024/05/03 10:16:10;;;;;;;150.63;48.53;;;17.50;97.20;;;;;;5415593;26;20301;-54
2024/05/03 10:18:40;;;;;;;151.13;48.73;;;17.50;99.90;;;;;;5414187;26;20298;-53
2024/05/03 10:21:29;;;;;;;151.20;48.77;;;17.60;99.90;;;;;;5414829;26;20255;-52
2024/05/03 10:24:02;;;;;;;150.93;48.73;;;17.70;98.70;;;;;;5414274;26;20680;-52
2024/05/03 10:26:36;;;;;;;150.60;48.37;;;17.50;99.00;;;;;;5414114;26;20255;-53
2024/05/03 10:29:44;;;;;;;150.90;48.57;;;17.30;99.90;;;;;;5414357;26;20294;-54
2024/05/03 10:32:25;;;;;;;150.60;48.40;;;17.40;99.90;;;;;;5414705;26;20289;-54
2024/05/03 10:35:02;;;;;;;150.73;48.47;;;17.50;99.30;;;;;;5413983;26;20255;-51
2024/05/03 10:37:35;;;;;;;151.17;48.77;;;17.60;99.90;;;;;;5415077;26;20254;-52
2024/05/03 10:40:07;;;;;;;150.57;48.53;;;17.60;98.60;;;;;;5413334;26;20289;-53
2024/05/03 10:42:38;;;;;;;150.60;48.30;;;17.70;99.40;;;;;;5413098;26;20286;-51
2024/05/03 10:45:11;;;;;;;150.73;48.50;;;17.90;97.20;;;;;;5411429;26;20770;-52
2024/05/03 10:47:41;;;;;;;150.87;48.60;;;17.80;97.80;;;;;;5413419;26;20628;-51
2024/05/03 10:50:11;;;;;;;150.73;48.70;;;17.90;97.70;;;;;;5414020;26;20256;-53
2024/05/03 10:52:42;;;;;;;151.10;48.87;;;17.90;97.90;;;;;;5414974;26;20255;-53
2024/05/03 10:55:12;;;;;;;150.43;48.50;;;17.90;99.50;;;;;;5417573;26;20309;-52
2024/05/03 10:57:42;;;;;;;150.40;48.53;;;17.80;96.20;;;;;;5417327;26;20262;-51
2024/05/03 11:00:16;;;;;;;151.00;48.77;;;17.90;97.50;;;;;;5416453;26;20262;-53
2024/05/03 11:02:47;;;;;;;150.90;48.80;;;17.80;98.30;;;;;;5446850;26;20597;-51
2024/05/03 11:05:18;;;;;;;150.70;48.67;;;17.80;99.20;;;;;;5442308;26;20754;-53
2024/05/03 11:07:48;;;;;;;150.67;48.53;;;17.80;97.30;;;;;;5449561;26;20257;-54
2024/05/03 11:10:18;;;;;;;150.33;48.30;;;17.50;98.50;;;;;;5449461;26;20358;-56
2024/05/03 11:12:48;;;;;;;150.33;48.30;;;17.60;97.50;;;;;;5450228;26;20285;-54
2024/05/03 11:15:21;;;;;;;150.67;48.47;;;17.60;99.10;;;;;;5449430;26;20258;-55
2024/05/03 11:17:54;;;;;;;150.47;48.43;;;17.60;97.80;;;;;;5449635;26;20254;-53
2024/05/03 11:20:24;;;;;;;150.37;48.47;;;17.50;98.20;;;;;;5444828;26;20589;-53
2024/05/03 11:22:54;;;;;;;150.40;48.43;;;17.50;96.30;;;;;;5449767;26;20296;-52
2024/05/03 11:25:24;;;;;;;150.77;48.57;;;17.40;97.10;;;;;;5447950;26;20571;-53
2024/05/03 11:27:54;;;;;;;150.83;48.83;;;17.50;96.70;;;;;;5448936;26;20770;-53
2024/05/03 11:30:29;;;;;;;150.87;48.67;;;17.60;96.20;;;;;;5449886;26;20350;-53
2024/05/03 11:33:00;;;;;;;149.63;47.93;;;17.60;96.80;;;;;;5448898;26;21135;-50
2024/05/03 11:35:30;;;;;;;150.37;48.50;;;17.70;96.40;;;;;;5449455;26;20746;-51
2024/05/03 11:38:00;;;;;;;149.97;48.23;;;17.60;96.70;;;;;;5445614;26;20250;-52
2024/05/03 11:40:30;;;;;;;150.10;48.30;;;17.80;96.60;;;;;;5449337;26;20254;-53
2024/05/03 11:43:01;;;;;;;150.83;48.63;;;17.70;94.80;;;;;;5449746;26;20639;-53
2024/05/03 11:45:34;;;;;;;150.33;48.23;;;17.70;94.50;;;;;;5446649;26;20326;-53
2024/05/03 11:48:04;;;;;;;150.10;48.43;;;17.70;93.40;;;;;;5445870;26;20293;-53
2024/05/03 11:50:34;;;;;;;150.47;48.47;;;17.50;94.60;;;;;;5448446;26;20250;-53
2024/05/03 11:53:04;;;;;;;149.73;48.30;;;17.70;95.50;;;;;;5449035;26;20353;-53
2024/05/03 11:55:35;;;;;;;150.40;48.60;;;17.70;95.50;;;;;;5446736;26;20713;-52
2024/05/03 11:58:05;;;;;;;150.53;48.63;;;17.70;94.80;;;;;;5447416;26;20789;-54
2024/05/03 12:00:38;;;;;;;150.70;48.63;;;17.90;93.90;;;;;;5447177;26;20293;-54
2024/05/03 12:03:08;;;;;;;149.97;48.20;;;17.80;94.50;;;;;;5446903;26;20626;-54
2024/05/03 12:05:38;;;;;;;150.97;48.83;;;17.80;93.10;;;;;;5452500;26;20249;-53
2024/05/03 12:08:09;;;;;;;151.00;48.83;;;17.80;93.00;;;;;;5452571;26;20779;-54
2024/05/03 12:10:39;;;;;;;150.87;48.80;;;17.70;93.90;;;;;;5452632;26;20258;-54
2024/05/03 12:13:09;;;;;;;150.73;48.73;;;17.70;93.80;;;;;;5451891;26;21108;-54
2024/05/03 12:15:41;;;;;;;149.83;48.13;;;17.70;94.20;;;;;;5446802;26;20247;-52
2024/05/03 12:18:12;;;;;;;150.23;48.33;;;17.70;93.60;;;;;;5452152;26;20292;-52
2024/05/03 12:20:42;;;;;;;150.07;48.40;;;17.60;94.60;;;;;;5449570;26;20296;-54
2024/05/03 12:23:12;;;;;;;150.20;48.30;;;17.80;94.40;;;;;;5451989;26;20335;-53
2024/05/03 12:25:42;;;;;;;150.40;48.80;;;17.70;93.30;;;;;;5452107;26;20288;-54
2024/05/03 12:28:12;;;;;;;150.57;48.67;;;18.00;92.90;;;;;;5443515;26;20293;-51
2024/05/03 12:30:45;;;;;;;151.70;49.57;;;18.10;94.70;;;;;;5446505;26;20358;-50
2024/05/03 12:33:15;;;;;;;150.83;49.03;;;18.20;92.10;;;;;;5444013;26;20354;-50
2024/05/03 12:35:46;;;;;;;150.33;48.53;;;18.00;91.70;;;;;;5444546;26;20265;-51
2024/05/03 12:38:17;;;;;;;150.53;48.80;;;17.90;93.40;;;;;;5448190;26;20301;-51